Time;durP1;ratioP1;P1;durP2;ratioP2;P2;SDS_P1;SDS_P2;PMS_P1;PMS_P2;Temp;Humidity;BMP_temperature;BMP_pressure;BME280_temperature;BME280_humidity;BME280_pressure;Samples;Min_cycle;Max_cycle;Signal;HPM_P1;HPM_P2
2021/06/12 00:00:22;;;;;;;12.50;9.60;;;18.60;99.90;;;;;;5011903;28;20193;-76
2021/06/12 00:02:48;;;;;;;17.03;9.13;;;18.60;99.90;;;;;;5011480;28;20282;-77
2021/06/12 00:05:15;;;;;;;14.43;9.73;;;18.70;99.90;;;;;;5011712;28;20497;-76
2021/06/12 00:07:41;;;;;;;12.47;9.33;;;18.70;99.90;;;;;;5011758;28;20422;-75
2021/06/12 00:10:13;;;;;;;13.30;9.60;;;18.70;99.90;;;;;;5011828;28;20401;-76
2021/06/12 00:12:39;;;;;;;17.07;9.40;;;18.60;99.90;;;;;;5011874;28;20519;-76
2021/06/12 00:15:07;;;;;;;12.90;9.90;;;18.50;99.90;;;;;;5013465;28;20416;-76
2021/06/12 00:17:33;;;;;;;15.77;11.30;;;18.40;99.90;;;;;;5013722;28;20186;-76
2021/06/12 00:19:59;;;;;;;19.27;11.10;;;18.40;99.90;;;;;;5013638;28;20422;-76
2021/06/12 00:22:24;;;;;;;15.10;11.93;;;18.30;99.90;;;;;;5013644;28;20266;-76
2021/06/12 00:24:50;;;;;;;14.47;10.60;;;18.30;99.90;;;;;;5013214;28;20210;-76
2021/06/12 00:27:16;;;;;;;15.20;10.87;;;18.40;99.90;;;;;;5013479;28;20202;-76
2021/06/12 00:29:41;;;;;;;15.60;10.40;;;18.40;99.90;;;;;;5013460;28;20624;-76
2021/06/12 00:32:07;;;;;;;17.47;10.27;;;18.20;99.90;;;;;;5013533;28;20174;-76
2021/06/12 00:34:32;;;;;;;17.60;11.70;;;18.10;99.90;;;;;;5013154;28;20584;-76
2021/06/12 00:36:58;;;;;;;14.83;9.97;;;18.10;99.90;;;;;;5013451;28;20186;-75
2021/06/12 00:39:24;;;;;;;17.90;12.10;;;18.10;99.90;;;;;;5013254;28;20289;-78
2021/06/12 00:41:49;;;;;;;15.27;10.90;;;17.90;99.90;;;;;;5014117;28;20174;-76
2021/06/12 00:44:15;;;;;;;16.50;11.60;;;17.80;99.90;;;;;;5016947;28;20228;-76
2021/06/12 00:46:41;;;;;;;19.17;11.77;;;17.80;99.90;;;;;;5017496;28;20179;-76
2021/06/12 00:49:07;;;;;;;13.60;9.70;;;17.90;99.90;;;;;;5017639;28;20185;-76
2021/06/12 00:51:33;;;;;;;17.93;13.10;;;17.90;99.90;;;;;;5017302;28;20522;-76
2021/06/12 00:53:59;;;;;;;18.70;12.40;;;17.90;99.90;;;;;;5016940;28;20488;-76
2021/06/12 00:56:25;;;;;;;19.10;12.23;;;17.80;99.90;;;;;;5017476;28;20186;-76
2021/06/12 00:58:52;;;;;;;17.20;11.17;;;17.80;99.90;;;;;;5017248;28;20262;-76
2021/06/12 01:01:20;;;;;;;16.50;11.77;;;17.70;99.90;;;;;;5017086;28;20388;-76
2021/06/12 01:03:46;;;;;;;16.63;11.10;;;17.70;99.90;;;;;;5016664;28;20482;-76
2021/06/12 01:06:14;;;;;;;15.23;10.10;;;17.70;99.90;;;;;;5013871;28;20443;-76
2021/06/12 01:08:43;;;;;;;17.47;12.03;;;17.70;99.90;;;;;;5016795;28;20380;-76
2021/06/12 01:11:11;;;;;;;16.77;10.67;;;17.60;99.90;;;;;;5016682;28;20505;-77
2021/06/12 01:13:42;;;;;;;15.40;10.93;;;17.70;99.90;;;;;;5016484;28;20440;-78
2021/06/12 01:16:20;;;;;;;15.07;10.80;;;17.70;99.90;;;;;;5016882;28;20933;-76
2021/06/12 01:18:49;;;;;;;16.53;10.83;;;17.70;99.90;;;;;;5017123;28;20796;-76
2021/06/12 01:21:30;;;;;;;16.77;11.73;;;17.60;99.90;;;;;;5017169;28;20414;-76
2021/06/12 01:24:24;;;;;;;18.23;12.70;;;17.60;99.90;;;;;;5016591;28;20895;-76
2021/06/12 01:27:07;;;;;;;17.57;12.30;;;17.50;99.90;;;;;;5021690;28;20398;-75
2021/06/12 01:30:04;;;;;;;17.20;11.17;;;17.50;99.90;;;;;;5016661;28;20375;-76
2021/06/12 01:32:35;;;;;;;15.70;11.30;;;17.50;99.90;;;;;;5015297;28;20421;-76
2021/06/12 01:35:05;;;;;;;16.73;11.83;;;17.40;99.90;;;;;;5016238;28;20420;-76
2021/06/12 01:37:35;;;;;;;18.43;12.90;;;17.40;99.90;;;;;;5016426;28;20405;-76
2021/06/12 01:40:04;;;;;;;21.17;13.07;;;17.50;99.90;;;;;;5016393;28;20738;-76
2021/06/12 01:42:30;;;;;;;16.90;10.63;;;17.50;99.90;;;;;;5016330;28;20376;-76
2021/06/12 01:44:56;;;;;;;24.83;13.73;;;17.50;99.90;;;;;;5015842;28;20442;-75
2021/06/12 01:47:23;;;;;;;15.60;11.40;;;17.50;99.90;;;;;;5016305;28;20405;-76
2021/06/12 01:49:51;;;;;;;18.80;12.33;;;17.60;99.90;;;;;;5016084;28;20408;-76
2021/06/12 01:52:18;;;;;;;15.50;11.20;;;17.60;99.90;;;;;;5015713;28;20409;-76
2021/06/12 01:54:44;;;;;;;16.00;11.90;;;17.70;99.90;;;;;;5015673;28;20844;-76
2021/06/12 01:57:11;;;;;;;20.83;13.63;;;17.70;99.90;;;;;;5016230;28;20399;-75
2021/06/12 01:59:38;;;;;;;18.37;12.67;;;17.70;99.90;;;;;;5016162;28;20397;-76
2021/06/12 02:02:05;;;;;;;17.93;13.00;;;17.50;99.90;;;;;;5015952;28;20418;-76
2021/06/12 02:04:31;;;;;;;16.10;11.17;;;17.50;99.90;;;;;;5014279;28;20469;-76
2021/06/12 02:07:02;;;;;;;20.00;11.87;;;17.50;99.90;;;;;;5015855;28;20467;-76
2021/06/12 02:09:30;;;;;;;18.50;11.33;;;17.60;99.90;;;;;;5015954;28;20464;-76
2021/06/12 02:11:57;;;;;;;15.13;11.10;;;17.80;99.90;;;;;;5015815;28;20380;-77
2021/06/12 02:14:24;;;;;;;15.57;10.30;;;17.80;99.90;;;;;;5015403;28;20433;-75
2021/06/12 02:16:50;;;;;;;16.60;10.47;;;17.80;99.90;;;;;;5015881;28;20420;-75
2021/06/12 02:19:17;;;;;;;16.00;10.60;;;17.90;99.90;;;;;;5015789;28;20417;-75
2021/06/12 02:21:43;;;;;;;13.63;10.70;;;17.90;99.90;;;;;;5015723;28;20389;-76
2021/06/12 02:24:09;;;;;;;15.53;10.40;;;17.90;99.90;;;;;;5015206;28;20415;-76
2021/06/12 02:26:41;;;;;;;14.63;10.50;;;17.90;99.90;;;;;;5015560;28;20229;-76
2021/06/12 02:29:09;;;;;;;15.77;12.13;;;18.00;99.90;;;;;;5015856;28;20747;-76
2021/06/12 02:31:43;;;;;;;17.87;11.80;;;18.00;99.90;;;;;;5015401;28;20406;-75
2021/06/12 02:34:09;;;;;;;21.37;11.23;;;17.90;99.90;;;;;;5014890;28;20493;-76
2021/06/12 02:36:35;;;;;;;17.27;12.43;;;17.80;99.90;;;;;;5015374;28;20822;-75
2021/06/12 02:39:02;;;;;;;24.43;12.70;;;17.80;99.90;;;;;;5015410;28;20175;-75
2021/06/12 02:41:28;;;;;;;17.77;13.47;;;17.80;99.90;;;;;;5015265;28;20480;-76
2021/06/12 02:43:54;;;;;;;15.20;11.37;;;17.80;99.90;;;;;;5014700;28;20833;-75
2021/06/12 02:46:29;;;;;;;16.77;12.20;;;17.90;99.90;;;;;;5015087;28;20213;-75
2021/06/12 02:48:59;;;;;;;16.00;11.80;;;18.00;99.90;;;;;;5015250;28;20162;-75
2021/06/12 02:51:26;;;;;;;20.73;12.90;;;18.00;99.90;;;;;;5015247;28;20764;-76
2021/06/12 02:53:57;;;;;;;14.20;10.10;;;18.10;99.90;;;;;;5014609;28;20484;-75
2021/06/12 02:56:24;;;;;;;17.50;11.97;;;18.10;99.90;;;;;;5015195;28;20400;-76
2021/06/12 02:58:52;;;;;;;19.70;11.77;;;18.10;99.90;;;;;;5014938;28;20513;-75
2021/06/12 03:01:22;;;;;;;17.73;11.80;;;18.10;99.90;;;;;;5014872;28;20397;-75
2021/06/12 03:03:48;;;;;;;16.60;12.83;;;18.20;99.90;;;;;;5014226;28;20446;-76
2021/06/12 03:06:17;;;;;;;19.97;13.57;;;18.10;99.90;;;;;;5014203;28;20551;-75
2021/06/12 03:08:45;;;;;;;18.90;12.17;;;17.90;99.90;;;;;;5014631;28;20428;-75
2021/06/12 03:11:12;;;;;;;17.33;12.50;;;18.10;99.90;;;;;;5014696;28;20388;-75
2021/06/12 03:13:43;;;;;;;20.80;12.50;;;18.10;99.90;;;;;;5014303;28;20580;-75
2021/06/12 03:16:08;;;;;;;18.90;13.87;;;18.20;99.90;;;;;;5014578;28;20388;-75
2021/06/12 03:18:35;;;;;;;19.67;12.57;;;18.00;99.90;;;;;;5013264;28;20476;-75
2021/06/12 03:21:03;;;;;;;20.80;13.43;;;18.00;99.90;;;;;;5014497;28;20174;-75
2021/06/12 03:23:30;;;;;;;16.73;12.23;;;18.00;99.90;;;;;;5014134;28;20406;-75
2021/06/12 03:25:57;;;;;;;19.70;12.30;;;18.10;99.90;;;;;;5014404;28;20466;-75
2021/06/12 03:28:23;;;;;;;21.43;11.53;;;18.20;99.90;;;;;;5013302;28;20392;-77
2021/06/12 03:30:49;;;;;;;18.00;11.80;;;18.20;99.90;;;;;;5014301;28;20410;-75
2021/06/12 03:33:16;;;;;;;20.23;13.40;;;18.20;99.90;;;;;;5012909;28;20404;-76
2021/06/12 03:35:42;;;;;;;19.40;12.23;;;18.30;99.90;;;;;;5014108;28;20410;-75
2021/06/12 03:38:09;;;;;;;19.13;12.97;;;18.20;99.90;;;;;;5014172;28;20384;-75
2021/06/12 03:40:35;;;;;;;15.37;11.90;;;18.20;99.90;;;;;;5014098;28;20392;-75
2021/06/12 03:43:03;;;;;;;16.23;11.60;;;18.30;99.90;;;;;;5013778;28;20966;-75
2021/06/12 03:45:30;;;;;;;17.90;11.60;;;18.30;99.90;;;;;;5014052;28;20543;-75
2021/06/12 03:47:59;;;;;;;19.30;12.30;;;18.30;99.90;;;;;;5014083;28;20419;-75
2021/06/12 03:50:26;;;;;;;18.60;12.33;;;18.30;99.90;;;;;;5012822;28;20381;-75
2021/06/12 03:52:53;;;;;;;21.00;14.50;;;18.40;99.90;;;;;;5013581;28;20399;-80
2021/06/12 03:55:20;;;;;;;19.67;13.87;;;18.50;99.90;;;;;;5013831;28;20412;-75
2021/06/12 03:57:47;;;;;;;20.93;14.37;;;18.50;99.90;;;;;;5013912;28;20790;-75
2021/06/12 04:00:14;;;;;;;19.63;12.47;;;18.50;99.90;;;;;;5012710;28;20926;-75
2021/06/12 04:02:39;;;;;;;20.53;12.83;;;18.60;99.90;;;;;;5013825;28;20399;-75
2021/06/12 04:05:06;;;;;;;19.90;11.97;;;18.60;99.90;;;;;;5013361;28;20457;-75
2021/06/12 04:07:32;;;;;;;17.90;11.23;;;18.50;99.90;;;;;;5013823;28;20175;-75
2021/06/12 04:09:57;;;;;;;16.30;11.33;;;18.50;99.90;;;;;;5012715;28;20408;-75
2021/06/12 04:12:23;;;;;;;17.30;10.43;;;18.60;99.90;;;;;;5013753;28;20596;-75
2021/06/12 04:14:49;;;;;;;12.40;10.03;;;18.60;99.90;;;;;;5013323;28;20226;-75
2021/06/12 04:17:15;;;;;;;12.80;9.30;;;18.60;99.90;;;;;;5013305;28;20541;-75
2021/06/12 04:19:41;;;;;;;12.50;8.73;;;18.50;99.90;;;;;;5013614;28;20175;-76
2021/06/12 04:22:08;;;;;;;14.43;9.37;;;18.50;99.90;;;;;;5013610;28;20414;-75
2021/06/12 04:24:34;;;;;;;10.63;8.20;;;18.70;99.90;;;;;;5013209;28;20955;-75
2021/06/12 04:27:00;;;;;;;11.47;7.47;;;18.70;99.90;;;;;;5013507;28;20411;-76
2021/06/12 04:29:26;;;;;;;7.67;6.27;;;18.70;99.90;;;;;;5013627;28;20479;-75
2021/06/12 04:31:52;;;;;;;10.03;6.80;;;18.60;99.90;;;;;;5013450;28;20414;-75
2021/06/12 04:34:17;;;;;;;8.77;7.07;;;18.70;99.90;;;;;;5012982;28;20202;-75
2021/06/12 04:36:43;;;;;;;11.87;6.83;;;18.70;99.90;;;;;;5013673;28;20680;-75
2021/06/12 04:39:09;;;;;;;13.53;7.23;;;18.80;99.90;;;;;;5013419;28;20201;-75
2021/06/12 04:41:36;;;;;;;7.80;5.70;;;18.80;99.90;;;;;;5013546;28;20636;-75
2021/06/12 04:44:02;;;;;;;7.10;5.47;;;18.70;99.90;;;;;;5012939;28;21039;-75
2021/06/12 04:46:27;;;;;;;7.67;5.37;;;18.70;99.90;;;;;;5013463;28;20424;-76
2021/06/12 04:48:53;;;;;;;6.60;5.37;;;18.70;99.90;;;;;;5013702;28;20182;-75
2021/06/12 04:51:18;;;;;;;5.40;4.90;;;18.70;99.90;;;;;;5017428;28;20660;-75
2021/06/12 04:53:44;;;;;;;5.40;4.57;;;18.70;99.90;;;;;;5013031;28;20217;-75
2021/06/12 04:56:09;;;;;;;5.23;4.70;;;18.60;99.90;;;;;;5013216;28;20277;-75
2021/06/12 04:58:35;;;;;;;6.80;4.67;;;18.60;99.90;;;;;;5013218;28;20210;-75
2021/06/12 05:01:01;;;;;;;7.17;4.57;;;18.60;99.90;;;;;;5012324;28;20189;-75
2021/06/12 05:03:26;;;;;;;9.17;5.93;;;18.50;99.90;;;;;;5012755;28;20606;-76
2021/06/12 05:05:52;;;;;;;6.60;4.30;;;18.50;99.90;;;;;;5013263;28;20202;-75
2021/06/12 05:08:17;;;;;;;6.37;4.40;;;18.50;99.90;;;;;;5013186;28;20262;-75
2021/06/12 05:10:43;;;;;;;6.57;4.63;;;18.50;99.90;;;;;;5013206;28;20651;-75
2021/06/12 05:13:09;;;;;;;7.13;4.10;;;18.50;99.90;;;;;;5012911;28;20201;-79
2021/06/12 05:15:35;;;;;;;6.73;3.93;;;18.40;99.90;;;;;;5013070;28;20397;-74
2021/06/12 05:18:05;;;;;;;7.33;4.07;;;18.50;99.90;;;;;;5013225;28;20649;-75
2021/06/12 05:20:35;;;;;;;4.80;4.40;;;18.60;99.90;;;;;;5013081;28;20417;-75
2021/06/12 05:23:05;;;;;;;4.57;4.10;;;18.60;99.90;;;;;;5012689;28;20384;-75
2021/06/12 05:25:34;;;;;;;6.57;4.30;;;18.80;99.90;;;;;;5012735;28;20443;-75
2021/06/12 05:28:00;;;;;;;11.00;5.53;;;18.80;99.90;;;;;;5014090;28;20417;-75
2021/06/12 05:30:26;;;;;;;5.80;3.80;;;18.80;99.90;;;;;;5016641;28;20396;-75
2021/06/12 05:32:53;;;;;;;6.27;4.13;;;18.80;99.90;;;;;;5016446;28;20752;-75
2021/06/12 05:35:19;;;;;;;7.37;4.30;;;18.90;99.90;;;;;;5016319;28;20504;-75
2021/06/12 05:37:44;;;;;;;4.63;3.97;;;19.00;99.90;;;;;;5016462;28;20825;-75
2021/06/12 05:40:12;;;;;;;4.93;3.60;;;19.00;99.90;;;;;;5016448;28;20437;-75
2021/06/12 05:42:38;;;;;;;6.00;4.20;;;19.10;99.90;;;;;;5015087;28;20193;-76
2021/06/12 05:45:06;;;;;;;8.60;3.97;;;19.00;99.90;;;;;;5014684;28;20515;-76
2021/06/12 05:47:32;;;;;;;5.10;4.00;;;19.00;99.90;;;;;;5016212;28;20266;-77
2021/06/12 05:49:58;;;;;;;6.90;4.10;;;18.90;99.90;;;;;;5016205;28;20483;-75
2021/06/12 05:52:24;;;;;;;4.17;3.77;;;18.90;99.90;;;;;;5014974;28;20175;-75
2021/06/12 05:54:49;;;;;;;8.20;3.93;;;19.00;99.90;;;;;;5015712;28;20203;-75
2021/06/12 05:57:15;;;;;;;5.93;3.80;;;19.10;99.90;;;;;;5016126;28;20459;-75
2021/06/12 05:59:40;;;;;;;7.53;3.17;;;19.20;99.90;;;;;;5016020;28;20191;-74
2021/06/12 06:02:06;;;;;;;3.63;2.60;;;19.20;99.90;;;;;;5015895;28;20277;-75
2021/06/12 06:04:32;;;;;;;6.40;2.40;;;19.10;99.90;;;;;;5015550;28;20210;-75
2021/06/12 06:06:58;;;;;;;9.20;2.40;;;19.30;99.90;;;;;;5016115;28;20414;-75
2021/06/12 06:09:24;;;;;;;2.47;2.00;;;19.30;99.90;;;;;;5015902;28;20719;-75
2021/06/12 06:11:49;;;;;;;4.23;2.73;;;19.40;99.90;;;;;;5015775;28;20183;-75
2021/06/12 06:14:15;;;;;;;3.60;2.30;;;19.40;99.90;;;;;;5015322;28;20226;-75
2021/06/12 06:16:41;;;;;;;2.83;2.40;;;19.50;99.90;;;;;;5014605;28;20590;-74
2021/06/12 06:19:08;;;;;;;3.17;2.77;;;19.60;99.90;;;;;;5015927;28;20785;-75
2021/06/12 06:21:36;;;;;;;4.83;2.47;;;19.70;99.90;;;;;;5015660;28;20418;-75
2021/06/12 06:24:04;;;;;;;5.03;2.80;;;19.70;99.90;;;;;;5013988;28;20473;-75
2021/06/12 06:26:30;;;;;;;3.43;2.93;;;19.70;99.90;;;;;;5015701;28;20406;-75
2021/06/12 06:28:55;;;;;;;4.97;2.53;;;19.50;99.90;;;;;;5015564;28;20433;-74
2021/06/12 06:31:21;;;;;;;2.67;2.43;;;19.40;99.90;;;;;;5015552;28;20553;-75
2021/06/12 06:33:46;;;;;;;3.60;2.70;;;19.30;99.90;;;;;;5015075;28;20285;-75
2021/06/12 06:36:12;;;;;;;3.90;2.70;;;19.30;99.90;;;;;;5015262;28;20225;-75
2021/06/12 06:38:38;;;;;;;5.27;4.00;;;19.30;99.90;;;;;;5015247;28;20175;-74
2021/06/12 06:41:04;;;;;;;5.67;4.10;;;19.40;99.90;;;;;;5015450;28;20396;-75
2021/06/12 06:43:29;;;;;;;3.53;3.23;;;19.30;99.90;;;;;;5014851;28;20290;-77
2021/06/12 06:45:55;;;;;;;4.80;3.50;;;19.30;99.90;;;;;;5015177;28;20222;-75
2021/06/12 06:48:21;;;;;;;6.63;2.97;;;19.20;99.90;;;;;;5015056;28;20171;-74
2021/06/12 06:50:47;;;;;;;5.40;3.47;;;19.30;99.90;;;;;;5015192;28;20183;-74
2021/06/12 06:53:13;;;;;;;3.40;2.83;;;19.40;99.90;;;;;;5014831;28;20210;-75
2021/06/12 06:55:38;;;;;;;4.63;4.20;;;19.50;99.90;;;;;;5015228;28;20445;-74
2021/06/12 06:58:05;;;;;;;5.23;3.30;;;19.50;99.90;;;;;;5002936;28;20439;-74
2021/06/12 07:00:30;;;;;;;5.63;3.50;;;19.60;99.90;;;;;;4994874;28;20206;-75
2021/06/12 07:02:56;;;;;;;5.93;3.97;;;19.60;99.90;;;;;;4994875;28;20393;-74
2021/06/12 07:05:22;;;;;;;3.60;2.97;;;19.70;99.90;;;;;;4995088;28;20207;-75
2021/06/12 07:07:48;;;;;;;4.70;3.87;;;19.50;99.90;;;;;;4995167;28;20176;-74
2021/06/12 07:10:14;;;;;;;6.37;4.03;;;19.50;99.90;;;;;;4995145;28;20465;-74
2021/06/12 07:12:40;;;;;;;5.50;4.90;;;19.60;99.90;;;;;;4995052;28;20816;-75
2021/06/12 07:15:08;;;;;;;8.93;6.10;;;19.70;99.90;;;;;;4994857;28;20333;-75
2021/06/12 07:17:34;;;;;;;7.50;6.50;;;19.60;99.90;;;;;;4994997;28;20779;-75
2021/06/12 07:20:01;;;;;;;9.00;7.90;;;19.40;99.90;;;;;;4994867;28;20502;-75
2021/06/12 07:22:27;;;;;;;10.20;7.30;;;19.50;99.90;;;;;;4995012;28;20183;-74
2021/06/12 07:24:54;;;;;;;10.00;8.53;;;19.30;99.90;;;;;;4994521;28;20466;-75
2021/06/12 07:27:20;;;;;;;9.87;6.90;;;19.40;99.90;;;;;;4993769;28;20499;-74
2021/06/12 07:29:45;;;;;;;9.53;8.60;;;19.30;99.90;;;;;;4994072;28;20430;-75
2021/06/12 07:32:11;;;;;;;10.20;8.53;;;19.40;99.90;;;;;;4994866;28;20190;-75
2021/06/12 07:34:37;;;;;;;11.77;9.93;;;19.50;99.90;;;;;;4992853;28;20614;-74
2021/06/12 07:37:03;;;;;;;9.60;8.50;;;19.80;99.90;;;;;;4994591;28;20179;-74
2021/06/12 07:39:29;;;;;;;12.20;9.27;;;19.80;99.90;;;;;;4993650;28;20283;-74
2021/06/12 07:41:55;;;;;;;9.70;8.60;;;19.50;99.90;;;;;;4994530;28;20808;-74
2021/06/12 07:44:20;;;;;;;15.30;9.90;;;19.70;99.90;;;;;;4993932;28;20451;-74
2021/06/12 07:46:46;;;;;;;10.97;9.90;;;19.50;99.90;;;;;;4994552;28;20436;-73
2021/06/12 07:49:12;;;;;;;14.00;9.13;;;19.30;99.90;;;;;;4994421;28;20536;-74
2021/06/12 07:51:39;;;;;;;10.10;9.07;;;19.40;99.90;;;;;;4993979;28;20417;-74
2021/06/12 07:54:05;;;;;;;11.57;10.10;;;19.50;99.90;;;;;;4993990;28;20211;-74
2021/06/12 07:56:31;;;;;;;9.93;8.50;;;19.70;99.90;;;;;;4994173;28;20436;-74
2021/06/12 07:58:58;;;;;;;9.83;8.57;;;19.60;99.90;;;;;;4994141;28;20425;-74
2021/06/12 08:01:24;;;;;;;9.93;9.03;;;19.60;99.90;;;;;;4994324;28;20183;-74
2021/06/12 08:03:50;;;;;;;7.27;6.57;;;19.70;99.90;;;;;;4993917;28;20949;-74
2021/06/12 08:06:15;;;;;;;9.43;8.63;;;19.40;99.90;;;;;;4994245;28;20449;-75
2021/06/12 08:08:41;;;;;;;9.00;8.10;;;19.60;99.90;;;;;;4994164;28;20191;-76
2021/06/12 08:11:07;;;;;;;12.17;9.77;;;19.50;99.90;;;;;;4994211;28;20238;-74
2021/06/12 08:13:33;;;;;;;10.57;9.47;;;19.60;99.90;;;;;;4993778;28;20601;-74
2021/06/12 08:15:59;;;;;;;9.87;8.87;;;19.50;99.90;;;;;;4994053;28;20488;-74
2021/06/12 08:18:24;;;;;;;9.33;8.40;;;19.50;99.90;;;;;;4994030;28;20540;-76
2021/06/12 08:20:51;;;;;;;10.07;9.07;;;19.60;99.90;;;;;;4994213;28;20183;-74
2021/06/12 08:23:17;;;;;;;13.40;12.20;;;19.50;99.90;;;;;;4993502;28;20187;-74
2021/06/12 08:25:43;;;;;;;10.03;9.17;;;19.30;99.90;;;;;;4993859;28;20917;-74
2021/06/12 08:28:08;;;;;;;11.40;10.30;;;19.20;99.90;;;;;;4993839;28;20899;-74
2021/06/12 08:30:35;;;;;;;15.33;12.43;;;19.20;99.90;;;;;;4993863;28;20415;-74
2021/06/12 08:33:03;;;;;;;13.13;11.77;;;19.00;99.90;;;;;;4993913;28;20175;-76
2021/06/12 08:35:29;;;;;;;12.77;11.00;;;19.00;99.90;;;;;;4993645;28;20428;-74
2021/06/12 08:37:55;;;;;;;13.33;11.20;;;18.90;99.90;;;;;;4994153;28;20393;-74
2021/06/12 08:40:23;;;;;;;15.30;12.60;;;18.90;99.90;;;;;;4993887;28;20425;-74
2021/06/12 08:42:49;;;;;;;12.60;11.37;;;18.90;99.90;;;;;;4993399;28;20460;-75
2021/06/12 08:45:17;;;;;;;18.17;11.60;;;18.90;99.90;;;;;;4992419;28;20546;-75
2021/06/12 08:47:44;;;;;;;11.20;10.03;;;18.80;99.90;;;;;;4993699;28;20511;-74
2021/06/12 08:50:10;;;;;;;13.33;11.80;;;18.80;99.90;;;;;;4993826;28;20415;-74
2021/06/12 08:52:40;;;;;;;16.10;11.10;;;18.80;99.90;;;;;;4993705;28;20469;-74
2021/06/12 08:55:08;;;;;;;15.90;12.50;;;18.80;99.90;;;;;;4993353;28;20413;-73
2021/06/12 08:57:34;;;;;;;13.70;12.33;;;18.80;99.90;;;;;;4993566;28;20875;-74
2021/06/12 09:00:00;;;;;;;14.60;13.10;;;18.50;99.90;;;;;;4993640;28;20395;-74
2021/06/12 09:02:26;;;;;;;13.67;12.37;;;18.50;99.90;;;;;;4993874;28;20191;-74
2021/06/12 09:04:54;;;;;;;15.67;13.37;;;18.50;99.90;;;;;;4997012;28;20273;-74
2021/06/12 09:07:34;;;;;;;15.17;12.67;;;18.40;99.90;;;;;;4997315;28;20171;-74
2021/06/12 09:10:00;;;;;;;14.83;13.23;;;18.50;99.90;;;;;;4997498;28;20452;-75
2021/06/12 09:12:48;;;;;;;22.13;12.50;;;18.20;99.90;;;;;;4997386;28;20410;-74
2021/06/12 09:15:16;;;;;;;15.77;12.90;;;18.20;99.90;;;;;;4997354;28;20894;-75
2021/06/12 09:17:47;;;;;;;14.73;12.93;;;18.20;99.90;;;;;;4997413;28;20419;-75
2021/06/12 09:20:35;;;;;;;15.10;12.77;;;18.20;99.90;;;;;;4996028;28;20426;-74
2021/06/12 09:23:12;;;;;;;16.50;13.00;;;18.20;99.90;;;;;;4997046;28;20816;-75
2021/06/12 09:25:41;;;;;;;13.40;12.00;;;18.10;99.90;;;;;;4996941;28;20443;-74
2021/06/12 09:28:06;;;;;;;16.00;13.27;;;18.20;99.90;;;;;;4997209;28;20407;-74
2021/06/12 09:30:32;;;;;;;16.53;13.10;;;18.20;99.90;;;;;;4996975;28;20450;-75
2021/06/12 09:32:58;;;;;;;14.27;12.13;;;18.10;99.90;;;;;;4996838;28;20414;-74
2021/06/12 09:35:43;;;;;;;15.50;13.07;;;18.20;99.90;;;;;;4996658;28;20456;-74
2021/06/12 09:38:23;;;;;;;14.27;12.67;;;18.10;99.90;;;;;;4996936;28;20254;-74
2021/06/12 09:40:49;;;;;;;14.83;12.80;;;18.20;99.90;;;;;;4996968;28;20453;-73
2021/06/12 09:44:22;;;;;;;14.40;12.90;;;18.30;99.90;;;;;;4997210;28;20779;-74
2021/06/12 09:50:12;;;;;;;15.30;12.00;;;18.60;99.90;;;;;;4982354;28;20444;-75
2021/06/12 09:53:10;;;;;;;14.43;12.93;;;18.90;99.90;;;;;;4993160;28;20418;-74
2021/06/12 09:58:57;;;;;;;11.93;10.80;;;19.00;99.90;;;;;;4986927;28;20409;-74
2021/06/12 10:01:28;;;;;;;14.50;12.70;;;19.50;99.90;;;;;;4995135;28;20412;-74
2021/06/12 10:04:14;;;;;;;13.07;11.80;;;19.20;99.90;;;;;;4993766;28;20517;-77
2021/06/12 10:06:40;;;;;;;16.23;14.10;;;19.70;99.90;;;;;;4994409;28;20438;-75
2021/06/12 10:09:07;;;;;;;12.23;10.70;;;19.70;99.90;;;;;;4994997;28;20419;-74
2021/06/12 10:11:35;;;;;;;13.47;12.17;;;19.80;99.90;;;;;;4994141;28;20633;-76
2021/06/12 10:14:02;;;;;;;12.80;11.57;;;19.90;99.90;;;;;;4993713;28;20431;-74
2021/06/12 10:16:30;;;;;;;16.53;12.40;;;20.00;99.90;;;;;;4994834;28;20451;-76
2021/06/12 10:18:58;;;;;;;14.50;12.80;;;20.00;99.90;;;;;;4993903;28;20418;-75
2021/06/12 10:21:24;;;;;;;15.13;11.03;;;20.00;99.90;;;;;;4977522;28;20962;-76
2021/06/12 10:23:50;;;;;;;15.60;11.47;;;20.00;99.90;;;;;;4993893;28;20405;-75
2021/06/12 10:26:19;;;;;;;14.60;11.37;;;20.20;99.90;;;;;;4993906;28;20614;-75
2021/06/12 10:28:45;;;;;;;12.40;10.90;;;20.20;99.90;;;;;;4994003;28;20497;-77
2021/06/12 10:31:22;;;;;;;12.67;11.47;;;19.80;99.90;;;;;;4993375;28;20502;-76
2021/06/12 10:33:52;;;;;;;16.63;11.80;;;19.60;99.90;;;;;;4992128;28;20450;-76
2021/06/12 10:36:24;;;;;;;12.87;10.97;;;19.60;99.90;;;;;;4994112;28;20479;-76
2021/06/12 10:38:51;;;;;;;10.47;9.37;;;19.90;99.90;;;;;;4994393;28;20773;-75
2021/06/12 10:41:17;;;;;;;12.00;10.57;;;20.10;99.90;;;;;;4993237;28;20405;-75
2021/06/12 10:43:43;;;;;;;11.83;10.63;;;20.30;99.90;;;;;;4998259;28;20457;-77
2021/06/12 10:46:09;;;;;;;14.10;10.00;;;20.30;99.90;;;;;;5008355;28;20215;-78
2021/06/12 10:49:01;;;;;;;17.13;12.20;;;20.30;99.90;;;;;;5013024;28;21206;-76
2021/06/12 10:51:26;;;;;;;13.43;11.80;;;20.20;99.90;;;;;;5013351;28;20187;-75
2021/06/12 10:54:07;;;;;;;13.47;12.03;;;20.00;99.90;;;;;;5013194;28;20404;-75
2021/06/12 10:56:41;;;;;;;14.57;12.10;;;19.90;99.90;;;;;;5012720;28;20182;-76
2021/06/12 10:59:08;;;;;;;14.70;12.50;;;20.00;99.90;;;;;;5014350;28;20430;-75
2021/06/12 11:01:34;;;;;;;15.87;14.13;;;20.20;99.90;;;;;;5019342;28;20830;-76
2021/06/12 11:04:12;;;;;;;14.70;13.20;;;20.20;99.90;;;;;;5014590;28;20408;-76
2021/06/12 11:06:49;;;;;;;15.53;13.53;;;20.10;99.90;;;;;;5015071;28;20432;-75
2021/06/12 11:09:18;;;;;;;14.33;12.60;;;20.10;99.90;;;;;;5014923;28;20496;-75
2021/06/12 11:11:48;;;;;;;14.40;12.57;;;20.00;99.90;;;;;;5013547;28;21004;-75
2021/06/12 11:14:25;;;;;;;15.77;12.33;;;19.90;99.90;;;;;;5014023;28;20408;-75
2021/06/12 11:19:35;;;;;;;17.77;15.17;;;19.90;99.90;;;;;;5014395;28;20410;-74
2021/06/12 11:22:22;;;;;;;17.10;13.90;;;19.90;99.90;;;;;;5014662;28;20433;-74
2021/06/12 11:24:48;;;;;;;16.07;13.43;;;20.20;99.90;;;;;;5014029;28;20457;-74
2021/06/12 11:27:30;;;;;;;16.20;12.73;;;20.70;99.90;;;;;;5009054;28;20741;-74
2021/06/12 11:32:58;;;;;;;17.97;13.70;;;20.70;99.90;;;;;;5011511;28;20406;-74
2021/06/12 11:35:42;;;;;;;16.17;13.30;;;21.00;99.90;;;;;;5013710;28;20435;-74
2021/06/12 11:38:38;;;;;;;16.57;14.83;;;21.00;99.90;;;;;;5014063;28;20410;-74
2021/06/12 11:41:11;;;;;;;16.70;14.30;;;20.90;99.90;;;;;;5013808;28;20441;-75
2021/06/12 11:43:50;;;;;;;16.93;14.30;;;20.90;99.90;;;;;;5013468;28;20432;-74
2021/06/12 11:46:29;;;;;;;20.40;12.87;;;21.60;99.90;;;;;;5012522;28;20432;-74
2021/06/12 11:48:55;;;;;;;16.10;14.10;;;21.60;99.90;;;;;;5009908;28;20437;-74
2021/06/12 11:51:27;;;;;;;16.33;14.00;;;21.60;99.90;;;;;;5013662;28;20786;-74
2021/06/12 11:54:17;;;;;;;17.73;13.57;;;21.70;99.90;;;;;;5013567;28;20801;-74
2021/06/12 11:56:46;;;;;;;18.53;13.80;;;21.80;99.90;;;;;;5011294;28;20426;-74
2021/06/12 11:59:20;;;;;;;16.20;12.23;;;21.80;99.90;;;;;;5012705;28;20465;-74
2021/06/12 12:02:01;;;;;;;14.00;12.60;;;22.00;99.90;;;;;;5014121;28;20909;-74
2021/06/12 12:04:46;;;;;;;17.10;13.47;;;22.20;99.90;;;;;;5013516;28;20460;-74
2021/06/12 12:07:13;;;;;;;17.20;14.17;;;22.10;99.90;;;;;;5013725;28;20888;-74
2021/06/12 12:09:47;;;;;;;19.63;13.47;;;22.10;99.90;;;;;;5013854;28;20440;-73
2021/06/12 12:12:18;;;;;;;17.70;11.60;;;22.10;99.90;;;;;;5013455;28;20406;-74
2021/06/12 12:14:45;;;;;;;13.20;10.93;;;22.40;99.90;;;;;;5013093;28;20942;-74
2021/06/12 12:17:21;;;;;;;15.17;11.40;;;22.80;99.90;;;;;;5013498;28;20434;-74
2021/06/12 12:20:04;;;;;;;14.53;11.30;;;23.00;99.90;;;;;;5013503;28;20428;-74
2021/06/12 12:22:44;;;;;;;15.00;10.60;;;23.00;99.90;;;;;;5013414;28;20428;-74
2021/06/12 12:25:11;;;;;;;13.10;11.20;;;23.50;99.90;;;;;;5013270;28;20472;-75
2021/06/12 12:27:38;;;;;;;11.77;10.20;;;24.10;99.90;;;;;;5012998;28;20414;-74
2021/06/12 12:30:06;;;;;;;13.47;10.47;;;24.00;99.90;;;;;;5007039;28;20422;-74
2021/06/12 12:32:32;;;;;;;11.37;10.23;;;23.90;99.90;;;;;;5011992;28;20428;-74
2021/06/12 12:35:20;;;;;;;13.00;10.63;;;24.10;99.90;;;;;;5012685;28;20543;-73
2021/06/12 12:37:45;;;;;;;11.70;10.23;;;24.40;99.90;;;;;;5015769;28;20427;-74
2021/06/12 12:40:19;;;;;;;11.17;10.00;;;24.30;99.90;;;;;;5018314;28;20433;-73
2021/06/12 12:42:45;;;;;;;12.33;9.87;;;24.30;99.90;;;;;;5019363;28;20197;-73
2021/06/12 12:45:11;;;;;;;14.53;10.53;;;24.80;99.90;;;;;;5018252;28;20559;-73
2021/06/12 12:47:37;;;;;;;12.23;10.77;;;24.70;99.90;;;;;;5019789;28;20245;-74
2021/06/12 12:50:04;;;;;;;13.40;10.90;;;24.10;99.90;;;;;;5019903;28;20409;-73
2021/06/12 12:52:30;;;;;;;12.63;11.23;;;23.50;99.90;;;;;;5019664;28;20405;-74